sensor_id;sensor_type;location;lat;lon;timestamp;temperature;humidity
5334;DHT22;2689;50.954;7.116;2022-09-09T00:01:28;17.10;99.90
5334;DHT22;2689;50.954;7.116;2022-09-09T00:04:03;17.10;99.90
5334;DHT22;2689;50.954;7.116;2022-09-09T00:06:42;17.10;99.90
5334;DHT22;2689;50.954;7.116;2022-09-09T00:09:12;17.10;99.90
5334;DHT22;2689;50.954;7.116;2022-09-09T00:11:43;17.00;99.90
5334;DHT22;2689;50.954;7.116;2022-09-09T00:14:18;17.00;99.90
5334;DHT22;2689;50.954;7.116;2022-09-09T00:16:54;17.00;99.90
5334;DHT22;2689;50.954;7.116;2022-09-09T00:19:24;17.00;99.90
5334;DHT22;2689;50.954;7.116;2022-09-09T00:22:03;16.90;99.90
5334;DHT22;2689;50.954;7.116;2022-09-09T00:24:40;16.90;99.90
5334;DHT22;2689;50.954;7.116;2022-09-09T00:27:13;16.90;99.90
5334;DHT22;2689;50.954;7.116;2022-09-09T00:29:44;16.90;99.90
5334;DHT22;2689;50.954;7.116;2022-09-09T00:32:15;16.80;99.90
5334;DHT22;2689;50.954;7.116;2022-09-09T00:34:49;16.80;99.90
5334;DHT22;2689;50.954;7.116;2022-09-09T00:37:19;16.70;99.90
5334;DHT22;2689;50.954;7.116;2022-09-09T00:39:47;16.70;99.90
5334;DHT22;2689;50.954;7.116;2022-09-09T00:42:19;16.70;99.90
5334;DHT22;2689;50.954;7.116;2022-09-09T00:44:56;16.60;99.90
5334;DHT22;2689;50.954;7.116;2022-09-09T00:47:43;16.60;99.90
5334;DHT22;2689;50.954;7.116;2022-09-09T00:50:29;16.60;99.90
5334;DHT22;2689;50.954;7.116;2022-09-09T00:53:09;16.60;99.90
5334;DHT22;2689;50.954;7.116;2022-09-09T00:55:45;16.60;99.90
5334;DHT22;2689;50.954;7.116;2022-09-09T00:58:13;16.60;99.90
5334;DHT22;2689;50.954;7.116;2022-09-09T01:00:43;16.60;99.90
5334;DHT22;2689;50.954;7.116;2022-09-09T01:03:20;16.70;99.90
5334;DHT22;2689;50.954;7.116;2022-09-09T01:05:58;16.70;99.90
5334;DHT22;2689;50.954;7.116;2022-09-09T01:08:47;16.70;99.90
5334;DHT22;2689;50.954;7.116;2022-09-09T01:11:20;16.80;99.90
5334;DHT22;2689;50.954;7.116;2022-09-09T01:13:52;16.80;99.90
5334;DHT22;2689;50.954;7.116;2022-09-09T01:16:20;16.80;99.90
5334;DHT22;2689;50.954;7.116;2022-09-09T01:18:52;16.80;99.90
5334;DHT22;2689;50.954;7.116;2022-09-09T01:21:24;16.80;99.90
5334;DHT22;2689;50.954;7.116;2022-09-09T01:24:15;16.70;99.90
5334;DHT22;2689;50.954;7.116;2022-09-09T01:26:48;16.80;99.90
5334;DHT22;2689;50.954;7.116;2022-09-09T01:29:18;16.70;99.90
5334;DHT22;2689;50.954;7.116;2022-09-09T01:31:53;16.70;99.90
5334;DHT22;2689;50.954;7.116;2022-09-09T01:34:21;16.70;99.90
5334;DHT22;2689;50.954;7.116;2022-09-09T01:36:52;16.70;99.90
5334;DHT22;2689;50.954;7.116;2022-09-09T01:39:20;16.60;99.90
5334;DHT22;2689;50.954;7.116;2022-09-09T01:41:48;16.70;99.90
5334;DHT22;2689;50.954;7.116;2022-09-09T01:44:15;16.60;99.90
5334;DHT22;2689;50.954;7.116;2022-09-09T01:46:43;16.60;99.90
5334;DHT22;2689;50.954;7.116;2022-09-09T01:49:10;16.60;99.90
5334;DHT22;2689;50.954;7.116;2022-09-09T01:51:39;16.60;99.90
5334;DHT22;2689;50.954;7.116;2022-09-09T01:54:07;16.60;99.90
5334;DHT22;2689;50.954;7.116;2022-09-09T01:56:40;16.60;99.90
5334;DHT22;2689;50.954;7.116;2022-09-09T01:59:24;16.60;99.90
5334;DHT22;2689;50.954;7.116;2022-09-09T02:02:01;16.60;99.90
5334;DHT22;2689;50.954;7.116;2022-09-09T02:04:37;16.60;99.90
5334;DHT22;2689;50.954;7.116;2022-09-09T02:07:10;16.60;99.90
5334;DHT22;2689;50.954;7.116;2022-09-09T02:09:41;16.60;99.90
5334;DHT22;2689;50.954;7.116;2022-09-09T02:12:14;16.60;99.90
5334;DHT22;2689;50.954;7.116;2022-09-09T02:14:49;16.70;99.90
5334;DHT22;2689;50.954;7.116;2022-09-09T02:17:20;16.70;99.90
5334;DHT22;2689;50.954;7.116;2022-09-09T02:19:53;16.70;99.90
5334;DHT22;2689;50.954;7.116;2022-09-09T02:22:23;16.70;99.90
5334;DHT22;2689;50.954;7.116;2022-09-09T02:24:51;16.80;99.90
5334;DHT22;2689;50.954;7.116;2022-09-09T02:27:20;16.70;99.90
5334;DHT22;2689;50.954;7.116;2022-09-09T02:29:50;16.70;99.90
5334;DHT22;2689;50.954;7.116;2022-09-09T02:32:20;16.70;99.90
5334;DHT22;2689;50.954;7.116;2022-09-09T02:34:51;16.70;99.90
5334;DHT22;2689;50.954;7.116;2022-09-09T02:37:23;16.70;99.90
5334;DHT22;2689;50.954;7.116;2022-09-09T02:39:53;16.70;99.90
5334;DHT22;2689;50.954;7.116;2022-09-09T02:42:20;16.70;99.90
5334;DHT22;2689;50.954;7.116;2022-09-09T02:44:49;16.70;99.90
5334;DHT22;2689;50.954;7.116;2022-09-09T02:47:24;16.70;99.90
5334;DHT22;2689;50.954;7.116;2022-09-09T02:49:59;16.80;99.90
5334;DHT22;2689;50.954;7.116;2022-09-09T02:52:36;16.70;99.90
5334;DHT22;2689;50.954;7.116;2022-09-09T02:55:10;16.70;99.90
5334;DHT22;2689;50.954;7.116;2022-09-09T02:57:38;16.80;99.90
5334;DHT22;2689;50.954;7.116;2022-09-09T03:00:08;16.70;99.90
5334;DHT22;2689;50.954;7.116;2022-09-09T03:02:36;16.70;99.90
5334;DHT22;2689;50.954;7.116;2022-09-09T03:05:04;16.70;99.90
5334;DHT22;2689;50.954;7.116;2022-09-09T03:07:31;16.80;99.90
5334;DHT22;2689;50.954;7.116;2022-09-09T03:09:59;16.80;99.90
5334;DHT22;2689;50.954;7.116;2022-09-09T03:12:25;16.80;99.90
5334;DHT22;2689;50.954;7.116;2022-09-09T03:14:52;16.80;99.90
5334;DHT22;2689;50.954;7.116;2022-09-09T03:17:20;16.80;99.90
5334;DHT22;2689;50.954;7.116;2022-09-09T03:19:47;16.80;99.90
5334;DHT22;2689;50.954;7.116;2022-09-09T03:22:15;16.80;99.90
5334;DHT22;2689;50.954;7.116;2022-09-09T03:24:41;16.80;99.90
5334;DHT22;2689;50.954;7.116;2022-09-09T03:27:08;16.90;99.90
5334;DHT22;2689;50.954;7.116;2022-09-09T03:29:35;16.90;99.90
5334;DHT22;2689;50.954;7.116;2022-09-09T03:32:02;16.80;99.90
5334;DHT22;2689;50.954;7.116;2022-09-09T03:34:30;16.90;99.90
5334;DHT22;2689;50.954;7.116;2022-09-09T03:36:57;16.90;99.90
5334;DHT22;2689;50.954;7.116;2022-09-09T03:39:24;16.90;99.90
5334;DHT22;2689;50.954;7.116;2022-09-09T03:41:50;16.90;99.90
5334;DHT22;2689;50.954;7.116;2022-09-09T03:44:17;16.90;99.90
5334;DHT22;2689;50.954;7.116;2022-09-09T03:46:44;16.90;99.90
5334;DHT22;2689;50.954;7.116;2022-09-09T03:49:11;16.90;99.90
5334;DHT22;2689;50.954;7.116;2022-09-09T03:51:39;16.90;99.90
5334;DHT22;2689;50.954;7.116;2022-09-09T03:54:06;16.90;99.90
5334;DHT22;2689;50.954;7.116;2022-09-09T03:56:35;16.90;99.90
5334;DHT22;2689;50.954;7.116;2022-09-09T03:59:02;17.00;99.90
5334;DHT22;2689;50.954;7.116;2022-09-09T04:01:29;17.00;99.90
5334;DHT22;2689;50.954;7.116;2022-09-09T04:03:56;17.00;99.90
5334;DHT22;2689;50.954;7.116;2022-09-09T04:06:24;17.00;99.90
5334;DHT22;2689;50.954;7.116;2022-09-09T04:08:52;17.00;99.90
5334;DHT22;2689;50.954;7.116;2022-09-09T04:11:20;17.00;99.90
5334;DHT22;2689;50.954;7.116;2022-09-09T04:13:47;17.00;99.90
5334;DHT22;2689;50.954;7.116;2022-09-09T04:16:14;17.00;99.90
5334;DHT22;2689;50.954;7.116;2022-09-09T04:18:41;17.00;99.90
5334;DHT22;2689;50.954;7.116;2022-09-09T04:21:09;17.00;99.90
5334;DHT22;2689;50.954;7.116;2022-09-09T04:23:38;17.00;99.90
5334;DHT22;2689;50.954;7.116;2022-09-09T04:26:06;17.00;99.90
5334;DHT22;2689;50.954;7.116;2022-09-09T04:28:36;17.00;99.90
5334;DHT22;2689;50.954;7.116;2022-09-09T04:31:07;17.10;99.90
5334;DHT22;2689;50.954;7.116;2022-09-09T04:33:35;17.10;99.90
5334;DHT22;2689;50.954;7.116;2022-09-09T04:36:02;17.10;99.90
5334;DHT22;2689;50.954;7.116;2022-09-09T04:38:29;17.10;99.90
5334;DHT22;2689;50.954;7.116;2022-09-09T04:40:55;17.10;99.90
5334;DHT22;2689;50.954;7.116;2022-09-09T04:43:24;17.10;99.90
5334;DHT22;2689;50.954;7.116;2022-09-09T04:45:53;17.10;99.90
5334;DHT22;2689;50.954;7.116;2022-09-09T04:48:21;17.10;99.90
5334;DHT22;2689;50.954;7.116;2022-09-09T04:50:55;17.10;99.90
5334;DHT22;2689;50.954;7.116;2022-09-09T04:53:22;17.10;99.90
5334;DHT22;2689;50.954;7.116;2022-09-09T04:55:49;17.10;99.90
5334;DHT22;2689;50.954;7.116;2022-09-09T04:58:16;17.10;99.90
5334;DHT22;2689;50.954;7.116;2022-09-09T05:00:45;17.10;99.90
5334;DHT22;2689;50.954;7.116;2022-09-09T05:03:11;17.10;99.90
5334;DHT22;2689;50.954;7.116;2022-09-09T05:05:38;17.10;99.90
5334;DHT22;2689;50.954;7.116;2022-09-09T05:08:06;17.10;99.90
5334;DHT22;2689;50.954;7.116;2022-09-09T05:10:34;17.10;99.90
5334;DHT22;2689;50.954;7.116;2022-09-09T05:13:02;17.10;99.90
5334;DHT22;2689;50.954;7.116;2022-09-09T05:15:29;17.10;99.90
5334;DHT22;2689;50.954;7.116;2022-09-09T05:17:58;17.10;99.90
5334;DHT22;2689;50.954;7.116;2022-09-09T05:20:26;17.10;99.90
5334;DHT22;2689;50.954;7.116;2022-09-09T05:22:53;17.10;99.90
5334;DHT22;2689;50.954;7.116;2022-09-09T05:25:20;17.00;99.90
5334;DHT22;2689;50.954;7.116;2022-09-09T05:27:47;17.10;99.90
5334;DHT22;2689;50.954;7.116;2022-09-09T05:30:15;17.10;99.90
5334;DHT22;2689;50.954;7.116;2022-09-09T05:32:42;17.00;99.90
5334;DHT22;2689;50.954;7.116;2022-09-09T05:35:10;17.10;99.90
5334;DHT22;2689;50.954;7.116;2022-09-09T05:37:36;17.10;99.90
5334;DHT22;2689;50.954;7.116;2022-09-09T05:40:04;17.10;99.90
5334;DHT22;2689;50.954;7.116;2022-09-09T05:42:31;17.10;99.90
5334;DHT22;2689;50.954;7.116;2022-09-09T05:44:58;17.10;99.90
5334;DHT22;2689;50.954;7.116;2022-09-09T05:47:24;17.10;99.90
5334;DHT22;2689;50.954;7.116;2022-09-09T05:49:53;17.10;99.90
5334;DHT22;2689;50.954;7.116;2022-09-09T05:52:21;17.10;99.90
5334;DHT22;2689;50.954;7.116;2022-09-09T05:54:49;17.10;99.90
5334;DHT22;2689;50.954;7.116;2022-09-09T05:57:15;17.10;99.90
5334;DHT22;2689;50.954;7.116;2022-09-09T05:59:42;17.10;99.90
5334;DHT22;2689;50.954;7.116;2022-09-09T06:02:09;17.10;99.90
5334;DHT22;2689;50.954;7.116;2022-09-09T06:04:36;17.10;99.90
5334;DHT22;2689;50.954;7.116;2022-09-09T06:07:04;17.20;99.90
5334;DHT22;2689;50.954;7.116;2022-09-09T06:09:32;17.20;99.90
5334;DHT22;2689;50.954;7.116;2022-09-09T06:11:59;17.30;99.90
5334;DHT22;2689;50.954;7.116;2022-09-09T06:14:25;17.40;99.90
5334;DHT22;2689;50.954;7.116;2022-09-09T06:16:53;17.40;99.90
5334;DHT22;2689;50.954;7.116;2022-09-09T06:19:19;17.50;99.90
5334;DHT22;2689;50.954;7.116;2022-09-09T06:21:46;17.50;99.90
5334;DHT22;2689;50.954;7.116;2022-09-09T06:24:14;17.60;99.90
5334;DHT22;2689;50.954;7.116;2022-09-09T06:26:44;17.60;99.90
5334;DHT22;2689;50.954;7.116;2022-09-09T06:29:10;17.70;99.90
5334;DHT22;2689;50.954;7.116;2022-09-09T06:31:38;17.80;99.90
5334;DHT22;2689;50.954;7.116;2022-09-09T06:34:06;17.80;99.90
5334;DHT22;2689;50.954;7.116;2022-09-09T06:36:34;17.80;99.90
5334;DHT22;2689;50.954;7.116;2022-09-09T06:39:02;17.90;99.90
5334;DHT22;2689;50.954;7.116;2022-09-09T06:41:30;17.90;99.90
5334;DHT22;2689;50.954;7.116;2022-09-09T06:43:59;18.00;99.90
5334;DHT22;2689;50.954;7.116;2022-09-09T06:46:28;18.00;99.90
5334;DHT22;2689;50.954;7.116;2022-09-09T06:48:57;18.10;99.90
5334;DHT22;2689;50.954;7.116;2022-09-09T06:51:26;18.10;99.90
5334;DHT22;2689;50.954;7.116;2022-09-09T06:53:54;18.20;99.90
5334;DHT22;2689;50.954;7.116;2022-09-09T06:56:22;18.30;99.90
5334;DHT22;2689;50.954;7.116;2022-09-09T06:58:51;18.50;99.90
5334;DHT22;2689;50.954;7.116;2022-09-09T07:01:20;18.50;99.90
5334;DHT22;2689;50.954;7.116;2022-09-09T07:03:49;18.50;99.90
5334;DHT22;2689;50.954;7.116;2022-09-09T07:06:18;18.40;99.90
5334;DHT22;2689;50.954;7.116;2022-09-09T07:08:49;18.30;99.90
5334;DHT22;2689;50.954;7.116;2022-09-09T07:11:17;18.30;99.90
5334;DHT22;2689;50.954;7.116;2022-09-09T07:13:44;18.40;99.90
5334;DHT22;2689;50.954;7.116;2022-09-09T07:16:13;18.80;99.90
5334;DHT22;2689;50.954;7.116;2022-09-09T07:18:41;19.10;99.90
5334;DHT22;2689;50.954;7.116;2022-09-09T07:21:09;19.70;99.90
5334;DHT22;2689;50.954;7.116;2022-09-09T07:23:37;20.20;99.70
5334;DHT22;2689;50.954;7.116;2022-09-09T07:26:08;20.70;99.00
5334;DHT22;2689;50.954;7.116;2022-09-09T07:28:35;21.10;97.20
5334;DHT22;2689;50.954;7.116;2022-09-09T07:31:02;21.50;96.40
5334;DHT22;2689;50.954;7.116;2022-09-09T07:33:30;22.10;95.10
5334;DHT22;2689;50.954;7.116;2022-09-09T07:36:05;22.90;93.30
5334;DHT22;2689;50.954;7.116;2022-09-09T07:38:33;23.10;90.80
5334;DHT22;2689;50.954;7.116;2022-09-09T07:41:04;22.60;88.80
5334;DHT22;2689;50.954;7.116;2022-09-09T07:43:31;22.10;91.10
5334;DHT22;2689;50.954;7.116;2022-09-09T07:45:58;22.30;91.60
5334;DHT22;2689;50.954;7.116;2022-09-09T07:48:26;23.50;91.80
5334;DHT22;2689;50.954;7.116;2022-09-09T07:51:07;24.70;85.50
5334;DHT22;2689;50.954;7.116;2022-09-09T07:53:36;25.70;79.90
5334;DHT22;2689;50.954;7.116;2022-09-09T07:56:05;25.90;74.90
5334;DHT22;2689;50.954;7.116;2022-09-09T07:58:32;25.40;73.30
5334;DHT22;2689;50.954;7.116;2022-09-09T08:00:59;24.70;75.30
5334;DHT22;2689;50.954;7.116;2022-09-09T08:03:25;24.20;78.00
5334;DHT22;2689;50.954;7.116;2022-09-09T08:05:52;23.60;77.60
5334;DHT22;2689;50.954;7.116;2022-09-09T08:08:20;23.10;79.80
5334;DHT22;2689;50.954;7.116;2022-09-09T08:10:47;22.50;82.80
5334;DHT22;2689;50.954;7.116;2022-09-09T08:13:14;22.10;85.30
5334;DHT22;2689;50.954;7.116;2022-09-09T08:15:41;21.60;86.50
5334;DHT22;2689;50.954;7.116;2022-09-09T08:18:08;21.40;87.20
5334;DHT22;2689;50.954;7.116;2022-09-09T08:20:36;21.40;89.00
5334;DHT22;2689;50.954;7.116;2022-09-09T08:23:03;21.80;86.40
5334;DHT22;2689;50.954;7.116;2022-09-09T08:25:31;22.00;86.30
5334;DHT22;2689;50.954;7.116;2022-09-09T08:28:00;21.80;85.50
5334;DHT22;2689;50.954;7.116;2022-09-09T08:30:28;21.70;84.80
5334;DHT22;2689;50.954;7.116;2022-09-09T08:32:55;21.60;85.30
5334;DHT22;2689;50.954;7.116;2022-09-09T08:35:22;21.40;86.40
5334;DHT22;2689;50.954;7.116;2022-09-09T08:37:48;21.40;87.10
5334;DHT22;2689;50.954;7.116;2022-09-09T08:40:26;21.30;85.50
5334;DHT22;2689;50.954;7.116;2022-09-09T08:42:57;20.90;85.60
5334;DHT22;2689;50.954;7.116;2022-09-09T08:45:31;20.70;86.10
5334;DHT22;2689;50.954;7.116;2022-09-09T08:48:19;20.80;89.30
5334;DHT22;2689;50.954;7.116;2022-09-09T08:50:50;20.90;88.00
5334;DHT22;2689;50.954;7.116;2022-09-09T08:53:21;21.10;87.30
5334;DHT22;2689;50.954;7.116;2022-09-09T08:55:52;21.30;87.50
5334;DHT22;2689;50.954;7.116;2022-09-09T08:58:24;21.50;86.60
5334;DHT22;2689;50.954;7.116;2022-09-09T09:01:34;21.40;85.30
5334;DHT22;2689;50.954;7.116;2022-09-09T09:04:10;21.30;85.60
5334;DHT22;2689;50.954;7.116;2022-09-09T09:06:47;21.10;85.80
5334;DHT22;2689;50.954;7.116;2022-09-09T09:09:21;21.20;85.90
5334;DHT22;2689;50.954;7.116;2022-09-09T09:11:51;21.40;85.70
5334;DHT22;2689;50.954;7.116;2022-09-09T09:14:22;22.30;82.80
5334;DHT22;2689;50.954;7.116;2022-09-09T09:16:53;22.80;80.70
5334;DHT22;2689;50.954;7.116;2022-09-09T09:19:21;23.00;79.90
5334;DHT22;2689;50.954;7.116;2022-09-09T09:21:54;23.10;78.30
5334;DHT22;2689;50.954;7.116;2022-09-09T09:24:27;23.40;75.90
5334;DHT22;2689;50.954;7.116;2022-09-09T09:26:58;23.60;75.70
5334;DHT22;2689;50.954;7.116;2022-09-09T09:29:28;24.10;73.30
5334;DHT22;2689;50.954;7.116;2022-09-09T09:31:56;24.40;71.10
5334;DHT22;2689;50.954;7.116;2022-09-09T09:34:26;23.70;71.20
5334;DHT22;2689;50.954;7.116;2022-09-09T09:36:56;23.10;72.70
5334;DHT22;2689;50.954;7.116;2022-09-09T09:39:25;22.40;74.50
5334;DHT22;2689;50.954;7.116;2022-09-09T09:41:52;21.80;76.50
5334;DHT22;2689;50.954;7.116;2022-09-09T09:44:25;21.30;78.20
5334;DHT22;2689;50.954;7.116;2022-09-09T09:47:04;21.20;80.40
5334;DHT22;2689;50.954;7.116;2022-09-09T09:49:31;21.10;80.80
5334;DHT22;2689;50.954;7.116;2022-09-09T09:52:00;20.90;82.00
5334;DHT22;2689;50.954;7.116;2022-09-09T09:54:28;20.80;82.70
5334;DHT22;2689;50.954;7.116;2022-09-09T09:56:56;20.70;84.00
5334;DHT22;2689;50.954;7.116;2022-09-09T09:59:35;20.60;93.20
5334;DHT22;2689;50.954;7.116;2022-09-09T10:02:18;20.60;87.00
5334;DHT22;2689;50.954;7.116;2022-09-09T10:04:45;20.60;86.30
5334;DHT22;2689;50.954;7.116;2022-09-09T10:07:18;20.60;85.70
5334;DHT22;2689;50.954;7.116;2022-09-09T10:09:48;20.80;86.90
5334;DHT22;2689;50.954;7.116;2022-09-09T10:12:24;21.10;84.80
5334;DHT22;2689;50.954;7.116;2022-09-09T10:15:00;21.50;83.00
5334;DHT22;2689;50.954;7.116;2022-09-09T10:17:35;21.60;81.60
5334;DHT22;2689;50.954;7.116;2022-09-09T10:20:15;21.60;82.00
5334;DHT22;2689;50.954;7.116;2022-09-09T10:22:49;21.60;80.80
5334;DHT22;2689;50.954;7.116;2022-09-09T10:25:27;21.40;80.70
5334;DHT22;2689;50.954;7.116;2022-09-09T10:28:22;21.30;81.00
5334;DHT22;2689;50.954;7.116;2022-09-09T10:31:00;21.50;81.40
5334;DHT22;2689;50.954;7.116;2022-09-09T10:33:35;21.60;79.90
5334;DHT22;2689;50.954;7.116;2022-09-09T10:36:08;21.60;80.10
5334;DHT22;2689;50.954;7.116;2022-09-09T10:38:40;21.60;80.50
5334;DHT22;2689;50.954;7.116;2022-09-09T10:41:17;21.50;79.40
5334;DHT22;2689;50.954;7.116;2022-09-09T10:46:53;21.30;79.40
5334;DHT22;2689;50.954;7.116;2022-09-09T10:49:35;21.40;80.20
5334;DHT22;2689;50.954;7.116;2022-09-09T10:52:15;21.40;80.20
5334;DHT22;2689;50.954;7.116;2022-09-09T10:54:54;21.40;79.70
5334;DHT22;2689;50.954;7.116;2022-09-09T10:57:28;21.40;80.40
5334;DHT22;2689;50.954;7.116;2022-09-09T11:00:01;21.40;79.70
5334;DHT22;2689;50.954;7.116;2022-09-09T11:02:32;21.30;79.50
5334;DHT22;2689;50.954;7.116;2022-09-09T11:05:03;21.40;80.20
5334;DHT22;2689;50.954;7.116;2022-09-09T11:07:37;21.40;79.70
5334;DHT22;2689;50.954;7.116;2022-09-09T11:10:16;21.50;79.50
5334;DHT22;2689;50.954;7.116;2022-09-09T11:12:45;21.60;79.20
5334;DHT22;2689;50.954;7.116;2022-09-09T11:15:17;21.70;78.30
5334;DHT22;2689;50.954;7.116;2022-09-09T11:17:50;21.80;79.50
5334;DHT22;2689;50.954;7.116;2022-09-09T11:20:21;21.90;77.60
5334;DHT22;2689;50.954;7.116;2022-09-09T11:22:54;22.00;76.00
5334;DHT22;2689;50.954;7.116;2022-09-09T11:25:25;22.00;74.90
5334;DHT22;2689;50.954;7.116;2022-09-09T11:28:10;22.10;75.80
5334;DHT22;2689;50.954;7.116;2022-09-09T11:30:48;22.10;75.40
5334;DHT22;2689;50.954;7.116;2022-09-09T11:36:33;21.70;76.40
5334;DHT22;2689;50.954;7.116;2022-09-09T11:39:14;21.70;77.30
5334;DHT22;2689;50.954;7.116;2022-09-09T11:41:47;21.70;77.60
5334;DHT22;2689;50.954;7.116;2022-09-09T11:44:21;21.70;77.50
5334;DHT22;2689;50.954;7.116;2022-09-09T11:46:51;21.80;75.80
5334;DHT22;2689;50.954;7.116;2022-09-09T11:49:27;21.70;76.40
5334;DHT22;2689;50.954;7.116;2022-09-09T11:51:55;21.70;75.60
5334;DHT22;2689;50.954;7.116;2022-09-09T11:54:29;21.60;76.00
5334;DHT22;2689;50.954;7.116;2022-09-09T11:56:56;21.80;76.10
5334;DHT22;2689;50.954;7.116;2022-09-09T11:59:25;22.00;75.60
5334;DHT22;2689;50.954;7.116;2022-09-09T12:01:55;22.10;76.20
5334;DHT22;2689;50.954;7.116;2022-09-09T12:04:35;22.10;74.50
5334;DHT22;2689;50.954;7.116;2022-09-09T12:07:23;22.20;74.30
5334;DHT22;2689;50.954;7.116;2022-09-09T12:09:54;22.10;74.30
5334;DHT22;2689;50.954;7.116;2022-09-09T12:12:28;22.00;74.30
5334;DHT22;2689;50.954;7.116;2022-09-09T12:15:17;21.90;74.10
5334;DHT22;2689;50.954;7.116;2022-09-09T12:17:47;21.80;74.80
5334;DHT22;2689;50.954;7.116;2022-09-09T12:20:17;21.80;76.20
5334;DHT22;2689;50.954;7.116;2022-09-09T12:22:55;21.90;76.50
5334;DHT22;2689;50.954;7.116;2022-09-09T12:25:31;21.90;75.90
5334;DHT22;2689;50.954;7.116;2022-09-09T12:28:05;21.80;75.70
5334;DHT22;2689;50.954;7.116;2022-09-09T12:30:44;21.80;76.90
5334;DHT22;2689;50.954;7.116;2022-09-09T12:33:17;21.80;74.70
5334;DHT22;2689;50.954;7.116;2022-09-09T12:35:47;21.70;74.90
5334;DHT22;2689;50.954;7.116;2022-09-09T12:38:23;21.70;74.30
5334;DHT22;2689;50.954;7.116;2022-09-09T12:40:55;21.70;74.80
5334;DHT22;2689;50.954;7.116;2022-09-09T12:43:24;21.70;74.00
5334;DHT22;2689;50.954;7.116;2022-09-09T12:45:53;21.70;74.60
5334;DHT22;2689;50.954;7.116;2022-09-09T12:48:27;21.70;75.30
5334;DHT22;2689;50.954;7.116;2022-09-09T12:50:55;21.70;74.60
5334;DHT22;2689;50.954;7.116;2022-09-09T12:53:26;21.70;74.40
5334;DHT22;2689;50.954;7.116;2022-09-09T12:56:01;21.60;74.70
5334;DHT22;2689;50.954;7.116;2022-09-09T12:58:30;21.60;75.10
5334;DHT22;2689;50.954;7.116;2022-09-09T13:00:59;21.60;76.00
5334;DHT22;2689;50.954;7.116;2022-09-09T13:03:27;21.60;74.80
5334;DHT22;2689;50.954;7.116;2022-09-09T13:05:58;21.60;76.20
5334;DHT22;2689;50.954;7.116;2022-09-09T13:08:27;21.70;76.00
5334;DHT22;2689;50.954;7.116;2022-09-09T13:10:57;21.80;75.80
5334;DHT22;2689;50.954;7.116;2022-09-09T13:13:27;22.30;76.80
5334;DHT22;2689;50.954;7.116;2022-09-09T13:15:56;22.60;73.70
5334;DHT22;2689;50.954;7.116;2022-09-09T13:18:25;22.70;72.80
5334;DHT22;2689;50.954;7.116;2022-09-09T13:20:53;22.70;72.70
5334;DHT22;2689;50.954;7.116;2022-09-09T13:23:27;22.70;73.10
5334;DHT22;2689;50.954;7.116;2022-09-09T13:25:56;22.60;72.90
5334;DHT22;2689;50.954;7.116;2022-09-09T13:28:25;22.50;74.10
5334;DHT22;2689;50.954;7.116;2022-09-09T13:30:59;22.40;73.50
5334;DHT22;2689;50.954;7.116;2022-09-09T13:33:32;23.00;74.00
5334;DHT22;2689;50.954;7.116;2022-09-09T13:36:01;23.60;71.80
5334;DHT22;2689;50.954;7.116;2022-09-09T13:38:33;23.90;69.70
5334;DHT22;2689;50.954;7.116;2022-09-09T13:41:02;24.00;69.30
5334;DHT22;2689;50.954;7.116;2022-09-09T13:43:31;23.80;70.20
5334;DHT22;2689;50.954;7.116;2022-09-09T13:46:02;23.80;70.10
5334;DHT22;2689;50.954;7.116;2022-09-09T13:48:29;24.60;69.30
5334;DHT22;2689;50.954;7.116;2022-09-09T13:50:59;24.40;68.00
5334;DHT22;2689;50.954;7.116;2022-09-09T13:53:27;24.00;68.30
5334;DHT22;2689;50.954;7.116;2022-09-09T13:55:55;23.50;70.00
5334;DHT22;2689;50.954;7.116;2022-09-09T13:58:22;23.30;71.00
5334;DHT22;2689;50.954;7.116;2022-09-09T14:00:51;23.20;72.60
5334;DHT22;2689;50.954;7.116;2022-09-09T14:03:18;23.40;73.40
5334;DHT22;2689;50.954;7.116;2022-09-09T14:05:45;23.60;72.70
5334;DHT22;2689;50.954;7.116;2022-09-09T14:08:20;25.20;73.10
5334;DHT22;2689;50.954;7.116;2022-09-09T14:10:47;26.20;70.00
5334;DHT22;2689;50.954;7.116;2022-09-09T14:13:16;27.40;63.60
5334;DHT22;2689;50.954;7.116;2022-09-09T14:15:42;28.00;59.80
5334;DHT22;2689;50.954;7.116;2022-09-09T14:18:11;27.30;58.90
5334;DHT22;2689;50.954;7.116;2022-09-09T14:20:38;26.50;60.20
5334;DHT22;2689;50.954;7.116;2022-09-09T14:23:05;25.80;61.90
5334;DHT22;2689;50.954;7.116;2022-09-09T14:25:32;25.60;64.20
5334;DHT22;2689;50.954;7.116;2022-09-09T14:27:59;25.60;63.40
5334;DHT22;2689;50.954;7.116;2022-09-09T14:30:27;25.30;64.80
5334;DHT22;2689;50.954;7.116;2022-09-09T14:32:53;24.70;66.80
5334;DHT22;2689;50.954;7.116;2022-09-09T14:35:20;24.40;67.80
5334;DHT22;2689;50.954;7.116;2022-09-09T14:37:47;24.10;68.50
5334;DHT22;2689;50.954;7.116;2022-09-09T14:40:14;23.70;69.70
5334;DHT22;2689;50.954;7.116;2022-09-09T14:42:41;23.40;71.40
5334;DHT22;2689;50.954;7.116;2022-09-09T14:45:09;23.00;72.60
5334;DHT22;2689;50.954;7.116;2022-09-09T14:47:37;22.70;73.90
5334;DHT22;2689;50.954;7.116;2022-09-09T14:50:05;22.50;75.30
5334;DHT22;2689;50.954;7.116;2022-09-09T14:52:33;22.40;76.30
5334;DHT22;2689;50.954;7.116;2022-09-09T14:55:00;22.20;76.50
5334;DHT22;2689;50.954;7.116;2022-09-09T14:57:27;22.00;77.50
5334;DHT22;2689;50.954;7.116;2022-09-09T14:59:53;21.80;78.20
5334;DHT22;2689;50.954;7.116;2022-09-09T15:02:20;21.40;80.10
5334;DHT22;2689;50.954;7.116;2022-09-09T15:04:48;21.10;82.30
5334;DHT22;2689;50.954;7.116;2022-09-09T15:07:15;20.90;87.60
5334;DHT22;2689;50.954;7.116;2022-09-09T15:09:42;20.70;92.50
5334;DHT22;2689;50.954;7.116;2022-09-09T15:12:09;20.40;95.50
5334;DHT22;2689;50.954;7.116;2022-09-09T15:14:35;20.00;97.50
5334;DHT22;2689;50.954;7.116;2022-09-09T15:17:03;19.80;99.90
5334;DHT22;2689;50.954;7.116;2022-09-09T15:19:30;19.80;99.90
5334;DHT22;2689;50.954;7.116;2022-09-09T15:21:59;19.80;99.90
5334;DHT22;2689;50.954;7.116;2022-09-09T15:24:26;19.80;99.90
5334;DHT22;2689;50.954;7.116;2022-09-09T15:26:53;19.90;99.90
5334;DHT22;2689;50.954;7.116;2022-09-09T15:29:20;19.90;99.90
5334;DHT22;2689;50.954;7.116;2022-09-09T15:31:46;19.90;99.90
5334;DHT22;2689;50.954;7.116;2022-09-09T15:34:13;19.90;99.90
5334;DHT22;2689;50.954;7.116;2022-09-09T15:36:42;20.00;99.90
5334;DHT22;2689;50.954;7.116;2022-09-09T15:39:12;19.90;99.90
5334;DHT22;2689;50.954;7.116;2022-09-09T15:41:41;19.90;99.90
5334;DHT22;2689;50.954;7.116;2022-09-09T15:44:09;19.90;99.90
5334;DHT22;2689;50.954;7.116;2022-09-09T15:46:39;19.90;99.90
5334;DHT22;2689;50.954;7.116;2022-09-09T15:49:08;19.90;99.90
5334;DHT22;2689;50.954;7.116;2022-09-09T15:51:36;20.00;99.90
5334;DHT22;2689;50.954;7.116;2022-09-09T15:54:04;19.90;99.90
5334;DHT22;2689;50.954;7.116;2022-09-09T15:56:32;19.90;99.90
5334;DHT22;2689;50.954;7.116;2022-09-09T15:59:01;19.90;99.90
5334;DHT22;2689;50.954;7.116;2022-09-09T16:01:29;19.80;99.90
5334;DHT22;2689;50.954;7.116;2022-09-09T16:03:57;19.70;99.90
5334;DHT22;2689;50.954;7.116;2022-09-09T16:06:24;19.60;99.90
5334;DHT22;2689;50.954;7.116;2022-09-09T16:08:55;19.40;99.90
5334;DHT22;2689;50.954;7.116;2022-09-09T16:11:23;19.20;99.90
5334;DHT22;2689;50.954;7.116;2022-09-09T16:13:53;18.80;99.90
5334;DHT22;2689;50.954;7.116;2022-09-09T16:16:21;18.40;99.90
5334;DHT22;2689;50.954;7.116;2022-09-09T16:18:50;18.00;99.90
5334;DHT22;2689;50.954;7.116;2022-09-09T16:21:19;17.70;99.90
5334;DHT22;2689;50.954;7.116;2022-09-09T16:23:47;17.60;99.90
5334;DHT22;2689;50.954;7.116;2022-09-09T16:26:16;17.40;99.90
5334;DHT22;2689;50.954;7.116;2022-09-09T16:28:43;17.30;99.90